createdAt,value
2022-09-03T00:04:29.959Z,4.03
2022-09-03T00:09:41.538Z,5.80
2022-09-03T00:14:51.380Z,3.37
2022-09-03T00:20:00.047Z,3.10
2022-09-03T00:25:07.085Z,4.73
2022-09-03T00:30:13.847Z,6.13
2022-09-03T00:35:26.358Z,4.43
2022-09-03T00:41:01.839Z,4.73
2022-09-03T00:46:18.336Z,4.63
2022-09-03T00:51:34.839Z,3.93
2022-09-03T00:56:47.527Z,4.23
2022-09-03T01:02:02.321Z,4.17
2022-09-03T01:07:16.023Z,6.80
2022-09-03T01:12:30.291Z,3.27
2022-09-03T01:17:46.440Z,3.43
2022-09-03T01:23:36.010Z,3.77
2022-09-03T01:28:56.636Z,3.93
2022-09-03T01:34:11.518Z,4.10
2022-09-03T01:39:24.652Z,3.50
2022-09-03T01:44:39.520Z,4.23
2022-09-03T01:49:50.065Z,3.43
2022-09-03T01:55:07.197Z,4.07
2022-09-03T02:00:13.929Z,3.70
2022-09-03T02:05:19.472Z,3.63
2022-09-03T02:10:30.271Z,4.03
2022-09-03T02:15:37.529Z,4.30
2022-09-03T02:20:41.006Z,3.50
2022-09-03T02:25:49.228Z,6.90
2022-09-03T02:30:53.754Z,3.90
2022-09-03T02:35:56.971Z,4.13
2022-09-03T02:40:59.961Z,3.13
2022-09-03T02:46:08.085Z,3.47
2022-09-03T02:51:14.085Z,4.40
2022-09-03T02:56:17.512Z,5.97
2022-09-03T03:01:24.079Z,5.40
2022-09-03T03:06:27.540Z,4.50
2022-09-03T03:11:30.614Z,3.27
2022-09-03T03:16:35.002Z,3.30
2022-09-03T03:21:38.051Z,4.87
2022-09-03T03:26:41.267Z,3.57
2022-09-03T03:31:45.693Z,3.93
2022-09-03T03:36:48.666Z,6.30
2022-09-03T03:41:52.516Z,5.03
2022-09-03T03:46:56.852Z,5.07
2022-09-03T03:51:59.799Z,2.73
2022-09-03T03:57:03.072Z,3.87
2022-09-03T04:02:07.442Z,3.50
2022-09-03T04:07:10.999Z,6.43
2022-09-03T04:12:13.958Z,4.00
2022-09-03T04:17:21.054Z,4.53
2022-09-03T04:22:29.833Z,3.40
2022-09-03T04:27:33.172Z,4.10
2022-09-03T04:32:56.189Z,5.00
2022-09-03T04:37:59.305Z,7.70
2022-09-03T04:43:02.403Z,4.90
2022-09-03T04:48:10.477Z,4.23
2022-09-03T04:53:13.524Z,3.50
2022-09-03T04:58:16.627Z,3.30
2022-09-03T05:03:22.072Z,3.30
2022-09-03T05:08:26.527Z,5.43
2022-09-03T05:13:29.667Z,4.37
2022-09-03T05:18:35.818Z,4.70
2022-09-03T05:23:40.881Z,4.30
2022-09-03T05:28:45.219Z,3.60
2022-09-03T05:33:51.298Z,3.97
2022-09-03T05:38:55.245Z,5.17
2022-09-03T05:43:59.867Z,3.80
2022-09-03T05:49:06.414Z,3.90
2022-09-03T05:54:09.991Z,5.90
2022-09-03T05:59:13.871Z,5.50
2022-09-03T06:04:18.309Z,4.93
2022-09-03T06:09:23.838Z,4.90
2022-09-03T06:14:26.881Z,4.40
2022-09-03T06:19:31.286Z,5.47
2022-09-03T06:24:34.568Z,4.20
2022-09-03T06:29:38.952Z,4.93
2022-09-03T06:34:43.594Z,3.50
2022-09-03T06:39:46.648Z,4.60
2022-09-03T06:44:51.381Z,3.90
2022-09-03T06:49:55.811Z,6.83
2022-09-03T06:54:58.827Z,6.17
2022-09-03T07:00:02.651Z,5.33
2022-09-03T07:05:07.718Z,4.13
2022-09-03T07:10:14.064Z,3.73
2022-09-03T07:15:17.112Z,5.53
2022-09-03T07:20:22.354Z,3.40
2022-09-03T07:25:27.332Z,6.40
2022-09-03T07:30:30.303Z,4.10
2022-09-03T07:35:37.600Z,3.10
2022-09-03T07:40:40.593Z,3.23
2022-09-03T07:45:46.521Z,3.53
2022-09-03T07:50:51.463Z,4.80
2022-09-03T07:55:54.449Z,2.10
2022-09-03T08:00:58.320Z,2.73
2022-09-03T08:06:04.379Z,5.20
2022-09-03T08:11:10.056Z,6.23
2022-09-03T08:16:14.161Z,3.23
2022-09-03T08:21:20.208Z,3.20
2022-09-03T08:26:23.955Z,4.10
2022-09-03T08:31:28.264Z,7.87
2022-09-03T08:36:33.938Z,2.33
2022-09-03T08:41:50.360Z,3.23
2022-09-03T08:46:59.972Z,3.83
2022-09-03T08:52:07.556Z,2.37
2022-09-03T08:57:11.084Z,3.60
2022-09-03T09:02:26.349Z,4.53
2022-09-03T09:07:38.863Z,3.13
2022-09-03T09:12:51.668Z,2.37
2022-09-03T09:18:09.861Z,3.77
2022-09-03T09:23:21.217Z,3.57
2022-09-03T09:28:26.863Z,4.40
2022-09-03T09:33:32.234Z,4.03
2022-09-03T09:38:40.890Z,3.90
2022-09-03T09:43:45.479Z,3.47
2022-09-03T09:48:52.578Z,2.40
2022-09-03T09:54:05.116Z,8.53
2022-09-03T09:59:10.180Z,4.57
2022-09-03T10:04:14.938Z,3.23
2022-09-03T10:09:21.026Z,3.23
2022-09-03T10:14:35.132Z,3.80
2022-09-03T10:20:05.167Z,3.40
2022-09-03T10:25:11.109Z,4.73
2022-09-03T10:30:16.106Z,3.80
2022-09-03T10:35:28.529Z,3.60
2022-09-03T10:40:39.225Z,2.50
2022-09-03T10:45:53.250Z,3.83
2022-09-03T10:51:00.349Z,2.20
2022-09-03T10:56:09.521Z,4.10
2022-09-03T11:01:22.425Z,4.30
2022-09-03T11:06:29.545Z,3.70
2022-09-03T11:11:39.185Z,2.97
2022-09-03T11:16:49.229Z,2.30
2022-09-03T11:21:53.240Z,5.93
2022-09-03T11:27:07.032Z,3.03
2022-09-03T11:32:19.381Z,4.43
2022-09-03T11:37:24.846Z,3.73
2022-09-03T11:42:36.907Z,3.67
2022-09-03T11:47:42.220Z,3.53
2022-09-03T11:52:45.220Z,4.03
2022-09-03T11:57:49.742Z,2.87
2022-09-03T12:02:59.118Z,3.17
2022-09-03T12:08:28.358Z,3.00
2022-09-03T12:13:47.865Z,3.20
2022-09-03T12:18:53.205Z,5.10
2022-09-03T12:23:58.423Z,6.13
2022-09-03T12:29:03.016Z,3.43
2022-09-03T12:34:17.244Z,2.90
2022-09-03T12:40:04.701Z,5.30
2022-09-03T12:44:48.653Z,2.67
2022-09-03T12:49:53.472Z,2.10
2022-09-03T12:55:00.820Z,2.67
2022-09-03T13:00:09.223Z,3.33
2022-09-03T13:05:18.131Z,2.23
2022-09-03T13:10:28.229Z,3.53
2022-09-03T13:15:32.670Z,2.40
2022-09-03T13:20:44.888Z,5.40
2022-09-03T13:26:01.639Z,2.38
2022-09-03T13:31:26.974Z,3.97
2022-09-03T13:36:35.392Z,3.13
2022-09-03T13:41:45.001Z,2.22
2022-09-03T13:46:56.521Z,2.53
2022-09-03T13:52:04.034Z,2.40
2022-09-03T13:57:18.311Z,3.00
2022-09-03T14:02:34.506Z,4.43
2022-09-03T14:07:52.500Z,3.40
2022-09-03T14:13:07.230Z,4.80
2022-09-03T14:18:20.058Z,2.87
2022-09-03T14:23:34.167Z,2.70
2022-09-03T14:28:38.939Z,4.00
2022-09-03T14:33:57.902Z,3.17
2022-09-03T14:39:18.723Z,3.70
2022-09-03T14:44:49.733Z,3.20
2022-09-03T14:50:06.148Z,3.33
2022-09-03T14:55:21.112Z,2.20
2022-09-03T15:00:34.791Z,2.03
2022-09-03T15:05:54.976Z,2.80
2022-09-03T15:11:16.650Z,4.57
2022-09-03T15:16:42.935Z,3.50
2022-09-03T15:22:04.155Z,2.90
2022-09-03T15:27:20.750Z,2.20
2022-09-03T15:32:39.328Z,2.93
2022-09-03T15:37:49.057Z,2.97
2022-09-03T15:42:56.635Z,4.10
2022-09-03T15:48:11.035Z,2.20
2022-09-03T15:53:25.534Z,2.27
2022-09-03T15:58:34.637Z,3.67
2022-09-03T16:03:56.134Z,2.47
2022-09-03T16:09:03.305Z,2.33
2022-09-03T16:14:12.023Z,3.00
2022-09-03T16:19:19.629Z,4.23
2022-09-03T16:24:27.180Z,2.83
2022-09-03T16:29:32.055Z,2.47
2022-09-03T16:34:49.011Z,3.87
2022-09-03T16:40:03.209Z,3.10
2022-09-03T16:45:17.707Z,2.57
2022-09-03T16:50:31.874Z,3.53
2022-09-03T16:55:57.167Z,3.40
2022-09-03T17:01:13.349Z,4.40
2022-09-03T17:06:50.459Z,4.37
2022-09-03T17:12:05.251Z,3.07
2022-09-03T17:17:19.927Z,3.63
2022-09-03T17:22:39.845Z,3.43
2022-09-03T17:27:51.127Z,5.33
2022-09-03T17:33:25.601Z,4.40
2022-09-03T17:38:45.624Z,4.07
2022-09-03T17:43:59.840Z,5.43
2022-09-03T17:49:03.955Z,4.07
2022-09-03T17:54:13.433Z,6.30
2022-09-03T17:59:26.771Z,8.30
2022-09-03T18:04:46.484Z,12.13
2022-09-03T18:09:58.895Z,4.40
2022-09-03T18:15:10.865Z,7.13
2022-09-03T18:20:33.515Z,6.00
2022-09-03T18:25:56.607Z,10.33
2022-09-03T18:31:18.617Z,5.00
2022-09-03T18:36:39.574Z,4.80
2022-09-03T18:42:12.914Z,4.80
2022-09-03T18:48:09.095Z,4.17
2022-09-03T18:53:34.935Z,6.80
2022-09-03T18:59:01.301Z,5.50
2022-09-03T19:04:33.910Z,6.20
2022-09-03T19:10:04.489Z,5.60
2022-09-03T19:15:31.544Z,4.63
2022-09-03T19:20:55.979Z,7.20
2022-09-03T19:26:23.779Z,5.73
2022-09-03T19:31:59.781Z,5.67
2022-09-03T19:37:27.229Z,7.03
2022-09-03T19:43:01.661Z,12.03
2022-09-03T19:48:32.083Z,10.70
2022-09-03T19:53:54.883Z,8.27
2022-09-03T19:59:19.545Z,15.17
2022-09-03T20:04:46.417Z,8.70
2022-09-03T20:10:10.188Z,11.00
2022-09-03T20:15:13.367Z,11.83
2022-09-03T20:20:24.931Z,16.63
2022-09-03T20:25:46.114Z,16.13
2022-09-03T20:30:57.627Z,15.37
2022-09-03T20:36:10.489Z,11.63
2022-09-03T20:41:22.799Z,22.07
2022-09-03T20:46:45.510Z,14.13
2022-09-03T20:51:55.423Z,14.53
2022-09-03T20:57:26.051Z,11.80
2022-09-03T21:02:43.590Z,11.87
2022-09-03T21:07:57.368Z,11.30
2022-09-03T21:13:11.570Z,10.60
2022-09-03T21:18:23.470Z,14.37
2022-09-03T21:23:34.662Z,11.47
2022-09-03T21:28:41.530Z,14.67
2022-09-03T21:33:48.980Z,13.07
2022-09-03T21:39:07.184Z,15.50
2022-09-03T21:44:17.498Z,15.30
2022-09-03T21:49:25.656Z,13.47
2022-09-03T21:54:30.125Z,12.83
2022-09-03T21:59:58.300Z,13.13
2022-09-03T22:05:03.634Z,14.90
2022-09-03T22:10:14.090Z,14.67
2022-09-03T22:15:25.348Z,12.30
2022-09-03T22:20:29.022Z,12.70
2022-09-03T22:25:41.900Z,11.67
2022-09-03T22:30:54.226Z,11.17
2022-09-03T22:36:13.112Z,14.17
2022-09-03T22:41:31.012Z,13.70
2022-09-03T22:46:47.914Z,10.50
2022-09-03T22:52:01.728Z,13.07
2022-09-03T22:57:07.703Z,11.43
2022-09-03T23:02:16.601Z,13.97
2022-09-03T23:07:25.547Z,10.17
2022-09-03T23:12:36.319Z,13.70
2022-09-03T23:17:46.105Z,13.27
2022-09-03T23:22:54.534Z,10.90
2022-09-03T23:28:02.655Z,12.60
2022-09-03T23:33:08.572Z,9.83
2022-09-03T23:38:21.141Z,8.63
2022-09-03T23:43:48.244Z,10.10
2022-09-03T23:49:08.895Z,10.47
2022-09-03T23:54:20.143Z,12.47
2022-09-03T23:59:35.035Z,14.03
